Time;durP1;ratioP1;P1;durP2;ratioP2;P2;SDS_P1;SDS_P2;PMS_P1;PMS_P2;Temp;Humidity;BMP_temperature;BMP_pressure;BME280_temperature;BME280_humidity;BME280_pressure;Samples;Min_cycle;Max_cycle;Signal;HPM_P1;HPM_P2
2021/12/07 00:01:28;;;;;;;;;;;1.60;99.90;;;;;;8387622;28;20002;-69
2021/12/07 00:05:30;;;;;;;;;;;1.60;99.90;;;;;;8387262;28;19951;-69
2021/12/07 00:09:32;;;;;;;;;;;1.70;99.90;;;;;;8381277;28;19951;-69
2021/12/07 00:13:36;;;;;;;;;;;1.70;99.90;;;;;;8384550;28;19925;-69
2021/12/07 00:17:38;;;;;;;;;;;1.80;99.90;;;;;;8384833;28;19933;-70
2021/12/07 00:21:42;;;;;;;;;;;1.80;99.90;;;;;;8376292;28;20375;-69
2021/12/07 00:25:44;;;;;;;;;;;1.80;99.90;;;;;;8371399;28;19924;-69
2021/12/07 00:29:46;;;;;;;;;;;1.80;99.90;;;;;;8385569;28;19924;-69
2021/12/07 00:34:06;;;;;;;;;;;1.90;99.90;;;;;;8370881;28;19931;-69
2021/12/07 00:38:12;;;;;;;;;;;1.90;99.90;;;;;;8377363;28;19974;-69
2021/12/07 00:42:14;;;;;;;;;;;1.90;99.90;;;;;;8362222;28;20412;-69
2021/12/07 00:46:15;;;;;;;;;;;1.90;99.90;;;;;;8378358;28;19938;-69
2021/12/07 00:50:17;;;;;;;;;;;2.00;99.90;;;;;;8373103;28;19982;-69
2021/12/07 00:54:19;;;;;;;;;;;2.00;99.90;;;;;;8374705;28;19998;-69
2021/12/07 00:58:23;;;;;;;;;;;2.00;99.90;;;;;;8373054;28;19933;-69
2021/12/07 01:02:25;;;;;;;;;;;2.00;99.90;;;;;;8376162;28;19931;-69
2021/12/07 01:06:43;;;;;;;;;;;2.00;99.90;;;;;;8382821;28;20411;-69
2021/12/07 01:28:35;;;;;;;;;;;2.00;99.90;;;;;;8374322;28;19933;-69
2021/12/07 01:37:07;;;;;;;;;;;2.00;99.90;;;;;;8377703;28;20313;-70
2021/12/07 02:02:08;;;;;;;;;;;1.90;99.90;;;;;;8368087;28;19925;-69
2021/12/07 02:06:12;;;;;;;;;;;1.90;99.90;;;;;;8374730;28;19943;-69
2021/12/07 02:10:18;;;;;;;;;;;1.90;99.90;;;;;;8375127;28;19975;-69
2021/12/07 02:14:20;;;;;;;;;;;1.80;99.90;;;;;;8374242;28;20316;-69
2021/12/07 02:18:22;;;;;;;;;;;1.80;99.90;;;;;;8389752;28;19936;-69
2021/12/07 02:22:23;;;;;;;;;;;1.80;99.90;;;;;;8377214;28;19941;-69
2021/12/07 02:26:25;;;;;;;;;;;1.80;99.90;;;;;;8367537;28;19924;-69
2021/12/07 02:30:27;;;;;;;;;;;1.90;99.90;;;;;;8369456;28;20352;-69
2021/12/07 02:34:29;;;;;;;;;;;1.90;99.90;;;;;;8371604;28;19928;-70
2021/12/07 02:38:30;;;;;;;;;;;2.10;99.90;;;;;;8379391;28;20357;-69
2021/12/07 02:42:32;;;;;;;;;;;2.20;99.90;;;;;;8375787;28;19971;-69
2021/12/07 02:46:35;;;;;;;;;;;2.40;99.90;;;;;;8373472;28;19939;-69
2021/12/07 02:50:36;;;;;;;;;;;2.60;99.90;;;;;;8368595;28;19924;-69
2021/12/07 02:54:43;;;;;;;;;;;2.80;99.90;;;;;;8376419;28;19928;-69
2021/12/07 02:58:45;;;;;;;;;;;3.10;99.90;;;;;;8379375;28;19939;-69
2021/12/07 03:02:55;;;;;;;;;;;3.30;99.90;;;;;;8363176;28;19967;-69
2021/12/07 03:28:23;;;;;;;;;;;3.60;99.90;;;;;;8377237;28;19933;-69
2021/12/07 03:32:25;;;;;;;;;;;3.70;99.90;;;;;;8379814;28;19943;-70
2021/12/07 03:36:28;;;;;;;;;;;3.70;99.90;;;;;;8374022;28;20024;-69
2021/12/07 03:40:30;;;;;;;;;;;3.70;99.90;;;;;;8374558;28;19979;-69
2021/12/07 03:44:33;;;;;;;;;;;3.70;99.90;;;;;;8379041;28;19924;-69
2021/12/07 03:48:34;;;;;;;;;;;3.60;99.90;;;;;;8372327;28;19971;-69
2021/12/07 03:52:36;;;;;;;;;;;3.60;99.90;;;;;;8359887;28;19979;-69
2021/12/07 03:56:38;;;;;;;;;;;3.50;99.90;;;;;;8373246;28;19975;-69
2021/12/07 04:00:41;;;;;;;;;;;3.50;99.90;;;;;;8368843;28;19975;-69
2021/12/07 04:04:43;;;;;;;;;;;3.50;99.90;;;;;;8373997;28;19932;-69
2021/12/07 04:08:44;;;;;;;;;;;3.40;99.90;;;;;;8357529;28;19932;-69
2021/12/07 04:12:46;;;;;;;;;;;3.30;99.90;;;;;;8382077;28;19924;-69
2021/12/07 04:16:47;;;;;;;;;;;3.20;99.90;;;;;;8380082;28;19959;-69
2021/12/07 04:20:49;;;;;;;;;;;3.10;99.90;;;;;;8385574;28;19925;-69
2021/12/07 04:24:51;;;;;;;;;;;3.10;99.90;;;;;;8381666;28;19936;-69
2021/12/07 04:28:52;;;;;;;;;;;3.00;99.90;;;;;;8376791;28;19994;-69
2021/12/07 04:32:54;;;;;;;;;;;3.00;99.90;;;;;;8372442;28;19983;-69
2021/12/07 04:36:56;;;;;;;;;;;3.00;99.90;;;;;;8373017;28;20391;-69
2021/12/07 04:40:57;;;;;;;;;;;2.90;99.90;;;;;;8371632;28;20412;-69
2021/12/07 04:45:03;;;;;;;;;;;2.80;99.90;;;;;;8375407;28;19925;-69
2021/12/07 04:49:49;;;;;;;;;;;2.70;99.90;;;;;;8366649;28;19983;-69
2021/12/07 04:58:06;;;;;;;;;;;2.50;99.90;;;;;;8374463;28;19925;-70
2021/12/07 05:02:07;;;;;;;;;;;2.60;99.90;;;;;;8381723;28;19931;-69
2021/12/07 05:06:11;;;;;;;;;;;2.50;99.90;;;;;;8380376;28;19987;-69
2021/12/07 05:10:26;;;;;;;;;;;2.40;99.90;;;;;;8369805;28;20314;-69
2021/12/07 05:14:32;;;;;;;;;;;2.30;99.90;;;;;;8380705;28;20008;-69
2021/12/07 05:40:00;;;;;;;;;;;1.80;99.90;;;;;;8372480;28;19992;-70
2021/12/07 05:44:02;;;;;;;;;;;1.80;99.90;;;;;;8381512;28;20293;-70
2021/12/07 05:48:04;;;;;;;;;;;1.70;99.90;;;;;;8379282;28;19986;-70
2021/12/07 05:52:06;;;;;;;;;;;1.70;99.90;;;;;;8380974;28;19936;-69
2021/12/07 05:56:07;;;;;;;;;;;1.60;99.90;;;;;;8376320;28;19928;-69
2021/12/07 06:00:18;;;;;;;;;;;1.60;99.90;;;;;;8378449;28;20295;-69
2021/12/07 06:04:20;;;;;;;;;;;1.50;99.90;;;;;;8373170;28;20032;-69
2021/12/07 06:08:23;;;;;;;;;;;1.50;99.90;;;;;;8383691;28;20362;-70
2021/12/07 06:12:24;;;;;;;;;;;1.60;99.90;;;;;;8375175;28;19974;-70
2021/12/07 06:16:30;;;;;;;;;;;1.70;99.90;;;;;;8359453;28;19937;-70
2021/12/07 06:20:32;;;;;;;;;;;1.60;99.90;;;;;;8385508;28;19925;-69
2021/12/07 06:24:44;;;;;;;;;;;1.60;99.90;;;;;;8375708;28;19978;-69
2021/12/07 06:28:46;;;;;;;;;;;1.50;99.90;;;;;;8382172;28;20387;-69
2021/12/07 06:32:47;;;;;;;;;;;1.40;99.90;;;;;;8384589;28;19986;-69
2021/12/07 06:36:49;;;;;;;;;;;1.40;99.90;;;;;;8382294;28;19967;-70
2021/12/07 06:40:51;;;;;;;;;;;1.30;99.90;;;;;;8383598;28;19932;-70
2021/12/07 06:44:52;;;;;;;;;;;1.30;99.90;;;;;;8384855;28;19971;-69
2021/12/07 06:48:58;;;;;;;;;;;1.20;99.90;;;;;;8386702;28;20011;-69
2021/12/07 06:52:59;;;;;;;;;;;1.20;99.90;;;;;;8395088;28;20232;-70
2021/12/07 06:57:01;;;;;;;;;;;1.20;99.90;;;;;;8389352;28;19928;-69
2021/12/07 07:01:05;;;;;;;;;;;1.20;99.90;;;;;;8390141;28;19925;-69
2021/12/07 07:05:07;;;;;;;;;;;1.10;99.90;;;;;;8391050;28;19935;-70
2021/12/07 07:09:09;;;;;;;;;;;1.10;99.90;;;;;;8392506;28;19925;-70
2021/12/07 07:13:12;;;;;;;;;;;1.10;99.90;;;;;;8388775;28;19924;-69
2021/12/07 07:17:13;;;;;;;;;;;1.10;99.90;;;;;;8392395;28;19975;-69
2021/12/07 07:21:17;;;;;;;;;;;1.00;99.90;;;;;;8381326;28;19925;-70
2021/12/07 07:25:19;;;;;;;;;;;1.00;99.90;;;;;;8389957;28;19924;-70
2021/12/07 07:29:20;;;;;;;;;;;1.00;99.90;;;;;;8391886;28;19924;-69
2021/12/07 07:33:22;;;;;;;;;;;1.00;99.90;;;;;;8387610;28;19975;-69
2021/12/07 07:37:24;;;;;;;;;;;0.90;99.90;;;;;;8382851;28;19943;-70
2021/12/07 07:41:26;;;;;;;;;;;0.90;99.90;;;;;;8392745;28;20024;-70
2021/12/07 07:45:27;;;;;;;;;;;0.90;99.90;;;;;;8381974;28;19928;-70
2021/12/07 07:49:29;;;;;;;;;;;1.00;99.90;;;;;;8379431;28;20368;-69
2021/12/07 07:53:31;;;;;;;;;;;1.00;99.90;;;;;;8384846;28;20281;-70
2021/12/07 07:57:32;;;;;;;;;;;1.00;99.90;;;;;;8382831;28;19978;-69
2021/12/07 08:01:34;;;;;;;;;;;1.00;99.90;;;;;;8375025;28;19968;-69
2021/12/07 08:05:36;;;;;;;;;;;1.00;99.90;;;;;;8373469;28;19932;-69
2021/12/07 08:09:38;;;;;;;;;;;1.00;99.90;;;;;;8365908;28;20320;-69
2021/12/07 08:13:40;;;;;;;;;;;1.10;99.90;;;;;;8366112;28;19979;-70
2021/12/07 08:17:41;;;;;;;;;;;1.20;99.90;;;;;;8382891;28;19979;-69
2021/12/07 08:21:43;;;;;;;;;;;1.30;99.90;;;;;;8382259;28;19932;-70
2021/12/07 08:25:45;;;;;;;;;;;1.50;99.90;;;;;;8384044;28;19932;-69
2021/12/07 08:29:47;;;;;;;;;;;1.70;99.90;;;;;;8382797;28;19933;-69
2021/12/07 08:33:49;;;;;;;;;;;1.80;99.90;;;;;;8364918;28;20003;-69
2021/12/07 08:37:50;;;;;;;;;;;2.00;99.90;;;;;;8384646;28;20971;-70
2021/12/07 08:41:52;;;;;;;;;;;2.10;99.90;;;;;;8382061;28;20034;-70
2021/12/07 08:45:55;;;;;;;;;;;2.30;99.90;;;;;;8364073;28;20386;-69
2021/12/07 08:49:57;;;;;;;;;;;2.40;99.90;;;;;;8382887;28;19928;-70
2021/12/07 08:54:16;;;;;;;;;;;2.40;99.90;;;;;;8382433;28;19932;-69
2021/12/07 09:02:38;;;;;;;;;;;2.60;99.90;;;;;;8379066;28;19924;-69
2021/12/07 09:06:40;;;;;;;;;;;2.70;99.90;;;;;;8382614;28;19925;-70
2021/12/07 09:10:43;;;;;;;;;;;3.00;99.90;;;;;;8383001;28;19932;-70
2021/12/07 09:14:45;;;;;;;;;;;3.30;99.90;;;;;;8380792;28;19932;-70
2021/12/07 09:18:47;;;;;;;;;;;3.60;99.90;;;;;;8381678;28;19942;-70
2021/12/07 09:22:48;;;;;;;;;;;3.70;99.90;;;;;;8379900;28;19924;-70
2021/12/07 09:26:53;;;;;;;;;;;3.80;99.90;;;;;;8372031;28;20091;-70
2021/12/07 09:30:55;;;;;;;;;;;3.70;99.90;;;;;;8382241;28;20027;-70
2021/12/07 09:34:57;;;;;;;;;;;3.70;99.90;;;;;;8377191;28;20024;-70
2021/12/07 09:38:58;;;;;;;;;;;3.60;99.90;;;;;;8378468;28;19936;-70
2021/12/07 09:43:00;;;;;;;;;;;3.60;99.90;;;;;;8376472;28;20410;-70
2021/12/07 09:47:02;;;;;;;;;;;3.70;99.90;;;;;;8380063;28;19931;-70
2021/12/07 09:51:04;;;;;;;;;;;3.80;99.90;;;;;;8380415;28;19964;-70
2021/12/07 09:55:06;;;;;;;;;;;4.00;99.90;;;;;;8380013;28;20044;-70
2021/12/07 09:59:09;;;;;;;;;;;4.20;99.90;;;;;;8380164;28;20292;-70
2021/12/07 10:03:11;;;;;;;;;;;4.30;99.90;;;;;;8358995;28;20291;-70
2021/12/07 10:07:13;;;;;;;;;;;4.40;99.90;;;;;;8361535;28;20348;-70
2021/12/07 10:11:15;;;;;;;;;;;4.60;99.90;;;;;;8362135;28;19960;-70
2021/12/07 10:15:17;;;;;;;;;;;4.80;99.90;;;;;;8377943;28;19956;-70
2021/12/07 10:19:29;;;;;;;;;;;5.10;99.90;;;;;;8377759;28;20328;-70
2021/12/07 10:23:37;;;;;;;;;;;5.20;99.90;;;;;;8368792;28;19952;-70
2021/12/07 10:27:40;;;;;;;;;;;5.40;99.90;;;;;;8384644;28;19944;-70
2021/12/07 10:31:49;;;;;;;;;;;5.80;99.90;;;;;;8387001;28;19956;-70
2021/12/07 10:35:53;;;;;;;;;;;6.20;99.90;;;;;;8385460;28;19975;-70
2021/12/07 10:39:57;;;;;;;;;;;6.50;99.90;;;;;;8385803;28;20007;-70
2021/12/07 10:44:04;;;;;;;;;;;6.80;99.90;;;;;;8384450;28;19961;-70
2021/12/07 10:48:22;;;;;;;;;;;7.00;99.90;;;;;;8362074;28;20881;-70
2021/12/07 10:52:28;;;;;;;;;;;7.30;99.90;;;;;;8378426;28;19956;-70
2021/12/07 10:56:34;;;;;;;;;;;7.70;99.90;;;;;;8379325;28;19921;-70
2021/12/07 11:00:40;;;;;;;;;;;8.00;99.90;;;;;;8380293;28;19976;-70
2021/12/07 11:04:43;;;;;;;;;;;8.40;99.90;;;;;;8380071;28;20414;-70
2021/12/07 11:08:55;;;;;;;;;;;8.70;99.90;;;;;;8379017;28;19928;-70
2021/12/07 11:17:10;;;;;;;;;;;9.50;99.90;;;;;;8379404;28;19959;-70
2021/12/07 11:21:13;;;;;;;;;;;9.70;99.90;;;;;;8379671;28;19920;-70
2021/12/07 11:25:31;;;;;;;;;;;9.80;99.90;;;;;;8380855;28;19924;-71
2021/12/07 11:29:40;;;;;;;;;;;10.00;99.90;;;;;;8364628;28;20019;-70
2021/12/07 11:33:42;;;;;;;;;;;10.30;99.90;;;;;;8381743;28;19970;-71
2021/12/07 11:37:44;;;;;;;;;;;10.30;99.90;;;;;;8380952;28;19990;-70
2021/12/07 11:41:48;;;;;;;7.70;3.70;;;10.50;99.90;;;;;;8378699;28;19976;-71
2021/12/07 11:45:50;;;;;;;10.40;3.75;;;10.60;99.90;;;;;;8377909;28;20077;-71
2021/12/07 11:49:52;;;;;;;8.80;3.65;;;10.70;99.90;;;;;;8373960;28;20155;-71
2021/12/07 11:53:54;;;;;;;8.13;3.60;;;10.70;99.90;;;;;;8377191;28;20059;-71
2021/12/07 11:57:56;;;;;;;7.97;3.65;;;10.50;99.90;;;;;;8380161;28;20127;-71
2021/12/07 12:01:58;;;;;;;11.48;4.20;;;10.30;99.90;;;;;;8377891;28;20128;-70
2021/12/07 12:06:00;;;;;;;10.32;3.75;;;10.20;99.90;;;;;;8379861;28;20044;-70
2021/12/07 12:10:06;;;;;;;7.75;3.42;;;10.20;99.90;;;;;;8381806;28;20049;-70
2021/12/07 12:14:26;;;;;;;;;;;10.30;99.90;;;;;;8379844;28;20079;-70
2021/12/07 12:18:36;;;;;;;;;;;10.30;99.90;;;;;;8378907;28;20725;-70
2021/12/07 12:22:41;;;;;;;;;;;10.40;99.90;;;;;;8353828;28;20011;-71
2021/12/07 12:26:45;;;;;;;;;;;10.40;99.90;;;;;;8360755;28;19924;-70
2021/12/07 12:30:46;;;;;;;;;;;10.40;99.90;;;;;;8380650;28;19971;-70
2021/12/07 12:34:49;;;;;;;;;;;10.40;99.90;;;;;;8379817;28;20023;-70
2021/12/07 12:38:58;;;;;;;;;;;10.30;99.90;;;;;;8379768;28;19971;-70
2021/12/07 12:43:01;;;;;;;;;;;10.20;99.90;;;;;;8378840;28;20351;-70
2021/12/07 12:47:04;;;;;;;;;;;10.10;99.90;;;;;;8378328;28;19924;-70
2021/12/07 12:51:06;;;;;;;;;;;10.00;99.90;;;;;;8380474;28;20332;-70
2021/12/07 12:55:25;;;;;;;;;;;9.80;99.90;;;;;;8380105;28;19939;-70
2021/12/07 12:59:28;;;;;;;;;;;9.60;99.90;;;;;;8381911;28;20022;-70
2021/12/07 13:03:50;;;;;;;;;;;9.30;99.90;;;;;;8380737;28;20387;-70
2021/12/07 13:08:10;;;;;;;;;;;9.10;99.90;;;;;;8371681;28;19967;-70
2021/12/07 13:12:19;;;;;;;;;;;9.00;99.90;;;;;;8379158;28;19967;-70
2021/12/07 13:16:23;;;;;;;;;;;8.60;99.90;;;;;;8379237;28;20043;-70
2021/12/07 13:20:29;;;;;;;;;;;8.30;99.90;;;;;;8363576;28;19985;-70
2021/12/07 13:24:38;;;;;;;;;;;8.00;99.90;;;;;;8371749;28;20255;-70
2021/12/07 13:28:40;;;;;;;;;;;7.80;99.90;;;;;;8386958;28;19921;-70
2021/12/07 13:33:02;;;;;;;;;;;7.70;99.90;;;;;;8377154;28;19921;-70
2021/12/07 13:37:05;;;;;;;;;;;7.60;99.90;;;;;;8362920;28;19931;-70
2021/12/07 13:41:15;;;;;;;;;;;7.50;99.90;;;;;;8374999;28;19928;-70
2021/12/07 13:45:19;;;;;;;;;;;7.40;99.90;;;;;;8376931;28;19947;-70
2021/12/07 13:49:22;;;;;;;8.20;3.25;;;7.30;99.90;;;;;;8375915;28;20303;-70
2021/12/07 13:53:26;;;;;;;6.85;3.05;;;7.20;99.90;;;;;;8377077;28;20474;-70
2021/12/07 13:57:32;;;;;;;11.55;3.67;;;7.20;99.90;;;;;;8377384;28;20135;-69
2021/12/07 14:01:36;;;;;;;10.30;3.97;;;7.10;99.90;;;;;;8380252;28;20080;-69
2021/12/07 14:05:39;;;;;;;;;;;7.00;99.90;;;;;;8380593;28;20052;-69
2021/12/07 14:09:41;;;;;;;;;;;6.90;99.90;;;;;;8381107;28;19982;-69
2021/12/07 14:13:43;;;;;;;;;;;6.90;99.90;;;;;;8393326;28;19936;-69
2021/12/07 14:17:50;;;;;;;7.75;3.35;;;6.80;99.90;;;;;;8380594;28;19948;-70
2021/12/07 14:21:52;;;;;;;;;;;6.80;99.90;;;;;;8380909;28;20384;-69
2021/12/07 14:25:54;;;;;;;;;;;6.80;99.90;;;;;;8368622;28;19964;-69
2021/12/07 14:29:55;;;;;;;7.70;3.20;;;6.70;99.90;;;;;;8377979;28;19943;-70
2021/12/07 14:34:00;;;;;;;10.88;3.22;;;6.60;99.90;;;;;;8379268;28;20044;-70
2021/12/07 14:38:02;;;;;;;10.48;3.30;;;6.50;99.90;;;;;;8378433;28;20076;-70
2021/12/07 14:42:18;;;;;;;10.55;3.30;;;6.40;99.90;;;;;;8379384;28;20452;-70
2021/12/07 14:46:21;;;;;;;;;;;6.30;99.90;;;;;;8380456;28;20053;-70
2021/12/07 14:50:22;;;;;;;;;;;6.30;99.90;;;;;;8379889;28;19960;-69
2021/12/07 14:54:24;;;;;;;;;;;6.20;99.90;;;;;;8377960;28;19925;-70
2021/12/07 14:58:29;;;;;;;;;;;6.20;99.90;;;;;;8379195;28;19971;-70
2021/12/07 15:02:32;;;;;;;;;;;6.10;99.90;;;;;;8380538;28;19968;-70
2021/12/07 15:06:34;;;;;;;;;;;6.00;99.90;;;;;;8360826;28;19939;-70
2021/12/07 15:10:36;;;;;;;;;;;5.90;99.90;;;;;;8385660;28;20214;-70
2021/12/07 15:14:39;;;;;;;;;;;5.90;99.90;;;;;;8385881;28;19982;-70
2021/12/07 15:18:43;;;;;;;;;;;5.90;99.90;;;;;;8384721;28;20382;-70
2021/12/07 15:22:44;;;;;;;;;;;5.90;99.90;;;;;;8367231;28;20395;-70
2021/12/07 15:26:46;;;;;;;;;;;5.80;99.90;;;;;;8366368;28;20400;-70
2021/12/07 15:30:49;;;;;;;;;;;5.80;99.90;;;;;;8367404;28;19993;-70
2021/12/07 15:34:52;;;;;;;;;;;5.80;99.90;;;;;;8373397;28;20391;-70
2021/12/07 15:39:13;;;;;;;;;;;5.80;99.90;;;;;;8384479;28;20434;-70
2021/12/07 15:43:15;;;;;;;;;;;5.80;99.90;;;;;;8384381;28;20357;-70
2021/12/07 15:47:17;;;;;;;;;;;5.70;99.90;;;;;;8385624;28;20023;-70
2021/12/07 15:51:19;;;;;;;;;;;5.60;99.90;;;;;;8382320;28;20382;-70
2021/12/07 15:55:22;;;;;;;;;;;5.60;99.90;;;;;;8383298;28;19932;-70
2021/12/07 15:59:24;;;;;;;;;;;5.60;99.90;;;;;;8363731;28;19924;-70
2021/12/07 16:03:30;;;;;;;;;;;5.70;99.90;;;;;;8386049;28;19925;-70
2021/12/07 16:07:32;;;;;;;;;;;5.60;99.90;;;;;;8384134;28;19934;-70
2021/12/07 16:11:33;;;;;;;;;;;5.60;99.90;;;;;;8382028;28;19931;-70
2021/12/07 16:15:40;;;;;;;;;;;5.60;99.90;;;;;;8364511;28;19975;-70
2021/12/07 16:19:41;;;;;;;;;;;5.60;99.90;;;;;;8363310;28;19967;-70
2021/12/07 16:23:45;;;;;;;;;;;5.60;99.90;;;;;;8382763;28;19933;-70
2021/12/07 16:27:47;;;;;;;;;;;5.60;99.90;;;;;;8363560;28;20323;-70
2021/12/07 16:31:49;;;;;;;;;;;5.60;99.90;;;;;;8383009;28;20275;-70
2021/12/07 16:35:50;;;;;;;;;;;5.60;99.90;;;;;;8380296;28;20035;-70
2021/12/07 16:39:52;;;;;;;;;;;5.70;99.90;;;;;;8380235;28;19939;-70
2021/12/07 16:43:54;;;;;;;;;;;5.60;99.90;;;;;;8379280;28;20004;-70
2021/12/07 16:47:56;;;;;;;;;;;5.60;99.90;;;;;;8368442;28;19976;-70
2021/12/07 16:51:58;;;;;;;;;;;5.60;99.90;;;;;;8357425;28;19959;-70
2021/12/07 16:56:02;;;;;;;;;;;5.60;99.90;;;;;;8375320;28;20346;-70
2021/12/07 17:00:06;;;;;;;;;;;5.50;99.90;;;;;;8376116;28;20379;-70
2021/12/07 17:04:10;;;;;;;;;;;5.50;99.90;;;;;;8376004;28;19992;-70
2021/12/07 17:08:12;;;;;;;;;;;5.50;99.90;;;;;;8356881;28;20368;-70
2021/12/07 17:12:13;;;;;;;;;;;5.50;99.90;;;;;;8357775;28;20394;-70
2021/12/07 17:16:15;;;;;;;;;;;5.40;99.90;;;;;;8373838;28;20023;-70
2021/12/07 17:20:18;;;;;;;;;;;5.40;99.90;;;;;;8377326;28;19933;-70
2021/12/07 17:24:20;;;;;;;;;;;5.40;99.90;;;;;;8374872;28;20023;-70
2021/12/07 17:28:22;;;;;;;;;;;5.30;99.90;;;;;;8382091;28;19924;-70
2021/12/07 17:32:24;;;;;;;;;;;5.30;99.90;;;;;;8364070;28;20328;-70
2021/12/07 17:36:25;;;;;;;;;;;5.30;99.90;;;;;;8379930;28;19924;-70
2021/12/07 17:40:29;;;;;;;;;;;5.20;99.90;;;;;;8368098;28;19925;-70
2021/12/07 17:44:31;;;;;;;;;;;5.20;99.90;;;;;;8372136;28;19928;-69
2021/12/07 17:48:32;;;;;;;;;;;5.20;99.90;;;;;;8374889;28;19932;-70
2021/12/07 17:52:34;;;;;;;;;;;5.10;99.90;;;;;;8376094;28;19928;-70
2021/12/07 17:56:36;;;;;;;;;;;5.10;99.90;;;;;;8378904;28;20015;-70
2021/12/07 18:00:39;;;;;;;;;;;5.10;99.90;;;;;;8380182;28;19960;-70
2021/12/07 18:04:41;;;;;;;;;;;5.10;99.90;;;;;;8380025;28;20342;-70
2021/12/07 18:08:42;;;;;;;;;;;5.00;99.90;;;;;;8380819;28;19928;-70
2021/12/07 18:12:44;;;;;;;;;;;5.00;99.90;;;;;;8380211;28;20076;-69
2021/12/07 18:16:47;;;;;;;;;;;5.00;99.90;;;;;;8362680;28;19968;-70
2021/12/07 18:20:49;;;;;;;;;;;5.00;99.90;;;;;;8362389;28;20355;-70
2021/12/07 18:24:50;;;;;;;;;;;5.00;99.90;;;;;;8372559;28;19931;-70
2021/12/07 18:29:03;;;;;;;;;;;5.10;99.90;;;;;;8374509;28;19924;-70
2021/12/07 18:33:09;;;;;;;;;;;5.00;99.90;;;;;;8374076;28;19951;-70
2021/12/07 18:37:11;;;;;;;;;;;5.00;99.90;;;;;;8377663;28;19979;-70
2021/12/07 18:41:16;;;;;;;;;;;5.10;99.90;;;;;;8378351;28;19932;-70
2021/12/07 18:45:17;;;;;;;;;;;5.00;99.90;;;;;;8394764;28;20395;-70
2021/12/07 18:49:19;;;;;;;;;;;5.00;99.90;;;;;;8361420;28;19928;-70
2021/12/07 18:53:21;;;;;;;;;;;5.10;99.90;;;;;;8380716;28;19940;-69
2021/12/07 18:57:23;;;;;;;;;;;5.10;99.90;;;;;;8378722;28;19979;-70
2021/12/07 19:01:25;;;;;;;;;;;5.10;99.90;;;;;;8383964;28;20030;-70
2021/12/07 19:05:26;;;;;;;;;;;5.10;99.90;;;;;;8376513;28;19961;-70
2021/12/07 19:09:28;;;;;;;;;;;5.10;99.90;;;;;;8386468;28;20327;-70
2021/12/07 19:13:30;;;;;;;;;;;5.10;99.90;;;;;;8361351;28;20019;-70
2021/12/07 19:17:32;;;;;;;;;;;5.10;99.90;;;;;;8380554;28;19925;-70
2021/12/07 19:21:34;;;;;;;;;;;5.10;99.90;;;;;;8381689;28;20023;-70
2021/12/07 19:25:36;;;;;;;;;;;5.10;99.90;;;;;;8379276;28;19975;-70
2021/12/07 19:29:37;;;;;;;;;;;5.10;99.90;;;;;;8359809;28;20163;-70
2021/12/07 19:33:39;;;;;;;;;;;5.20;99.90;;;;;;8361731;28;19986;-70
2021/12/07 19:37:41;;;;;;;;;;;5.20;99.90;;;;;;8375136;28;19999;-70
2021/12/07 19:41:43;;;;;;;;;;;5.20;99.90;;;;;;8375173;28;19968;-70
2021/12/07 19:45:47;;;;;;;;;;;5.20;99.90;;;;;;8374525;28;20040;-70
2021/12/07 19:49:48;;;;;;;;;;;5.10;99.90;;;;;;8372865;28;19964;-70
2021/12/07 19:53:55;;;;;;;;;;;5.20;99.90;;;;;;8373128;28;19982;-70
2021/12/07 19:57:57;;;;;;;;;;;5.10;99.90;;;;;;8375984;28;20305;-70
2021/12/07 20:01:59;;;;;;;;;;;5.10;99.90;;;;;;8375285;28;19967;-70
2021/12/07 20:06:02;;;;;;;;;;;5.10;99.90;;;;;;8357083;28;19956;-70
2021/12/07 20:10:06;;;;;;;;;;;5.10;99.90;;;;;;8374275;28;19947;-70
2021/12/07 20:14:12;;;;;;;;;;;5.10;99.90;;;;;;8357059;28;20411;-70
2021/12/07 20:18:35;;;;;;;;;;;5.10;99.90;;;;;;8385010;28;20308;-70
2021/12/07 20:22:36;;;;;;;;;;;5.00;99.90;;;;;;8354741;28;19986;-70
2021/12/07 20:26:38;;;;;;;;;;;5.00;99.90;;;;;;8358149;28;20324;-69
2021/12/07 20:30:52;;;;;;;;;;;4.90;99.90;;;;;;8377167;28;19989;-70
2021/12/07 20:34:53;;;;;;;;;;;4.90;99.90;;;;;;8364039;28;19956;-70
2021/12/07 20:38:55;;;;;;;;;;;4.90;99.90;;;;;;8378108;28;19924;-70
2021/12/07 20:43:00;;;;;;;;;;;4.80;99.90;;;;;;8354496;28;19959;-70
2021/12/07 20:47:02;;;;;;;;;;;4.80;99.90;;;;;;8380644;28;20356;-70
2021/12/07 20:51:06;;;;;;;;;;;4.80;99.90;;;;;;8362020;28;19939;-70
2021/12/07 20:55:08;;;;;;;;;;;4.70;99.90;;;;;;8390648;28;19936;-70
2021/12/07 20:59:10;;;;;;;;;;;4.60;99.90;;;;;;8381283;28;19974;-70
2021/12/07 21:03:12;;;;;;;;;;;4.60;99.90;;;;;;8365463;28;19935;-70
2021/12/07 21:07:14;;;;;;;;;;;4.50;99.90;;;;;;8362531;28;20302;-70
2021/12/07 21:11:20;;;;;;;;;;;4.50;99.90;;;;;;8378838;28;20083;-70
2021/12/07 21:15:26;;;;;;;;;;;4.50;99.90;;;;;;8379341;28;20031;-70
2021/12/07 21:19:28;;;;;;;;;;;4.60;99.90;;;;;;8376957;28;19928;-70
2021/12/07 21:23:30;;;;;;;;;;;4.50;99.90;;;;;;8353650;28;20384;-70
2021/12/07 21:27:32;;;;;;;;;;;4.60;99.90;;;;;;8376813;28;19960;-70
2021/12/07 21:31:36;;;;;;;;;;;4.60;99.90;;;;;;8376702;28;20166;-70
2021/12/07 21:35:38;;;;;;;;;;;4.60;99.90;;;;;;8375688;28;20015;-70
2021/12/07 21:39:41;;;;;;;;;;;4.60;99.90;;;;;;8362062;28;20005;-70
2021/12/07 21:43:43;;;;;;;;;;;4.70;99.90;;;;;;8376813;28;19925;-70
2021/12/07 21:47:45;;;;;;;;;;;4.70;99.90;;;;;;8359649;28;20339;-70
2021/12/07 21:51:51;;;;;;;;;;;4.80;99.90;;;;;;8376407;28;21400;-70
2021/12/07 21:55:55;;;;;;;;;;;4.80;99.90;;;;;;8376934;28;19964;-70
2021/12/07 21:59:57;;;;;;;;;;;4.80;99.90;;;;;;8361405;28;20039;-70
2021/12/07 22:03:58;;;;;;;;;;;4.80;99.90;;;;;;8383641;28;19974;-70
2021/12/07 22:08:00;;;;;;;;;;;4.80;99.90;;;;;;8369344;28;19983;-70
2021/12/07 22:12:06;;;;;;;;;;;4.80;99.90;;;;;;8387047;28;19924;-70
2021/12/07 22:16:07;;;;;;;;;;;4.80;99.90;;;;;;8378220;28;19932;-70
2021/12/07 22:20:10;;;;;;;;;;;4.80;99.90;;;;;;8381440;28;19924;-70
2021/12/07 22:24:12;;;;;;;;;;;4.80;99.90;;;;;;8381940;28;20249;-70
2021/12/07 22:28:14;;;;;;;;;;;4.80;99.90;;;;;;8379845;28;20410;-70
2021/12/07 22:32:16;;;;;;;;;;;4.80;99.90;;;;;;8365157;28;19929;-70
2021/12/07 22:36:18;;;;;;;;;;;4.80;99.90;;;;;;8383507;28;19970;-70
2021/12/07 22:40:20;;;;;;;;;;;4.80;99.90;;;;;;8390431;28;19928;-70
2021/12/07 22:44:22;;;;;;;;;;;4.80;99.90;;;;;;8385407;28;20007;-70
2021/12/07 22:48:25;;;;;;;;;;;4.90;99.90;;;;;;8385091;28;20391;-69
2021/12/07 22:52:26;;;;;;;;;;;4.90;99.90;;;;;;8386351;28;19935;-69
2021/12/07 22:56:28;;;;;;;;;;;4.90;99.90;;;;;;8384585;28;20650;-70
2021/12/07 23:00:36;;;;;;;;;;;4.90;99.90;;;;;;8375766;28;19962;-70
2021/12/07 23:04:37;;;;;;;;;;;4.90;99.90;;;;;;8385456;28;19961;-70
2021/12/07 23:08:43;;;;;;;;;;;4.90;99.90;;;;;;8386785;28;20399;-70
2021/12/07 23:12:44;;;;;;;;;;;4.90;99.90;;;;;;8377765;28;20036;-70
2021/12/07 23:16:48;;;;;;;;;;;4.90;99.90;;;;;;8389453;28;20334;-69
2021/12/07 23:20:51;;;;;;;;;;;4.90;99.90;;;;;;8385106;28;19979;-69
2021/12/07 23:24:52;;;;;;;;;;;4.90;99.90;;;;;;8381691;28;19963;-70
2021/12/07 23:28:54;;;;;;;;;;;4.90;99.90;;;;;;8386965;28;19944;-70
2021/12/07 23:33:02;;;;;;;;;;;4.90;99.90;;;;;;8386592;28;19964;-70
2021/12/07 23:37:04;;;;;;;;;;;4.90;99.90;;;;;;8380472;28;19928;-70
2021/12/07 23:41:09;;;;;;;;;;;4.90;99.90;;;;;;8387891;28;19925;-70
2021/12/07 23:45:11;;;;;;;;;;;4.90;99.90;;;;;;8387033;28;20364;-70
2021/12/07 23:49:12;;;;;;;;;;;4.80;99.90;;;;;;8384796;28;19928;-70
2021/12/07 23:53:14;;;;;;;;;;;4.80;99.90;;;;;;8385574;28;20008;-70
2021/12/07 23:57:16;;;;;;;;;;;4.80;99.90;;;;;;8388774;28;19960;-70
